Time;durP1;ratioP1;P1;durP2;ratioP2;P2;SDS_P1;SDS_P2;PMS_P1;PMS_P2;Temp;Humidity;BMP_temperature;BMP_pressure;BME280_temperature;BME280_humidity;BME280_pressure;Samples;Min_cycle;Max_cycle;Signal;HPM_P1;HPM_P2
2022/08/28 00:01:30;;;;;;;;;;;24.80;76.30;;;;;;5071990;28;19950;-64
2022/08/28 00:03:57;;;;;;;;;;;24.80;75.80;;;;;;5072155;28;19909;-65
2022/08/28 00:06:22;;;;;;;;;;;24.80;76.20;;;;;;5072385;28;19920;-67
2022/08/28 00:08:48;;;;;;;;;;;24.80;76.40;;;;;;5071951;28;20283;-64
2022/08/28 00:11:14;;;;;;;;;;;24.80;76.00;;;;;;5072578;28;19923;-68
2022/08/28 00:13:39;;;;;;;;;;;24.90;75.40;;;;;;5074708;28;19960;-66
2022/08/28 00:16:05;;;;;;;;;;;24.90;75.50;;;;;;5080450;28;20016;-66
2022/08/28 00:18:30;;;;;;;;;;;24.90;75.00;;;;;;5079438;28;19947;-65
2022/08/28 00:20:57;;;;;;;;;;;25.00;74.90;;;;;;5073131;28;19913;-62
2022/08/28 00:23:24;;;;;;;;;;;25.10;74.60;;;;;;5061300;28;19931;-64
2022/08/28 00:25:49;;;;;;;;;;;25.00;74.40;;;;;;5072632;28;19917;-64
2022/08/28 00:28:16;;;;;;;;;;;25.10;74.40;;;;;;5071838;28;19916;-64
2022/08/28 00:30:47;;;;;;;;;;;25.10;74.40;;;;;;5084865;28;20328;-64
2022/08/28 00:33:14;;;;;;;;;;;25.10;74.40;;;;;;5072484;28;19935;-63
2022/08/28 00:35:41;;;;;;;;;;;25.10;74.60;;;;;;5071971;28;19908;-65
2022/08/28 00:38:07;;;;;;;;;;;25.10;74.70;;;;;;5071730;28;19909;-63
2022/08/28 00:40:33;;;;;;;;;;;25.10;74.70;;;;;;5071815;28;19946;-65
2022/08/28 00:43:02;;;;;;;;;;;25.10;75.40;;;;;;5071788;28;19912;-63
2022/08/28 00:45:29;;;;;;;;;;;25.20;74.50;;;;;;5071613;28;19932;-65
2022/08/28 00:47:55;;;;;;;;;;;25.30;74.10;;;;;;5071673;28;20288;-64
2022/08/28 00:50:28;;;;;;;;;;;25.20;74.50;;;;;;5071634;28;19920;-64
2022/08/28 00:52:58;;;;;;;;;;;25.30;74.50;;;;;;5060301;28;20463;-64
2022/08/28 00:55:26;;;;;;;;;;;25.00;75.00;;;;;;5071843;28;19913;-64
2022/08/28 00:57:53;;;;;;;;;;;25.10;75.20;;;;;;5071752;28;20046;-63
2022/08/28 01:00:22;;;;;;;;;;;25.10;75.00;;;;;;5071374;28;19920;-65
2022/08/28 01:02:48;;;;;;;;;;;25.00;75.80;;;;;;5071602;28;19920;-64
2022/08/28 01:05:14;;;;;;;;;;;25.00;75.70;;;;;;5075062;28;19925;-65
2022/08/28 01:07:40;;;;;;;;;;;24.80;76.40;;;;;;5075718;28;19958;-63
2022/08/28 01:10:08;;;;;;;;;;;24.80;76.60;;;;;;5075455;28;20009;-61
2022/08/28 01:12:34;;;;;;;;;;;24.80;76.10;;;;;;5075445;28;20007;-64
2022/08/28 01:15:01;;;;;;;;;;;24.70;76.70;;;;;;5075302;28;20050;-62
2022/08/28 01:17:28;;;;;;;;;;;24.80;76.90;;;;;;5075120;28;19913;-63
2022/08/28 01:19:58;;;;;;;;;;;24.70;77.20;;;;;;5075075;28;20110;-64
2022/08/28 01:22:32;;;;;;;;;;;24.70;76.90;;;;;;5063216;28;19948;-65
2022/08/28 01:24:59;;;;;;;;;;;24.80;76.70;;;;;;5075193;28;20275;-64
2022/08/28 01:27:25;;;;;;;;;;;24.90;75.90;;;;;;5075116;28;20011;-64
2022/08/28 01:29:51;;;;;;;;;;;24.90;76.10;;;;;;5080943;28;20003;-65
2022/08/28 01:32:42;;;;;;;;;;;24.80;76.30;;;;;;5083402;28;19908;-63
2022/08/28 01:35:10;;;;;;;;;;;24.80;76.20;;;;;;5074725;28;20390;-64
2022/08/28 01:37:36;;;;;;;;;;;24.80;76.30;;;;;;5074870;28;19958;-64
2022/08/28 01:40:03;;;;;;;;;;;24.90;76.00;;;;;;5074743;28;19908;-62
2022/08/28 01:42:28;;;;;;;;;;;24.90;76.10;;;;;;5074983;28;20398;-66
2022/08/28 01:44:54;;;;;;;;;;;24.80;76.60;;;;;;5074574;28;19912;-67
2022/08/28 01:47:21;;;;;;;;;;;24.80;76.40;;;;;;5074922;28;19912;-66
2022/08/28 01:49:46;;;;;;;;;;;24.90;76.20;;;;;;5074472;28;20003;-63
2022/08/28 01:52:12;;;;;;;;;;;24.90;76.10;;;;;;5060184;28;20007;-62
2022/08/28 01:54:38;;;;;;;;;;;24.80;76.40;;;;;;5074703;28;19952;-64
2022/08/28 01:57:04;;;;;;;;;;;24.80;76.40;;;;;;5073231;28;19912;-64
2022/08/28 01:59:30;;;;;;;;;;;24.70;77.20;;;;;;5074435;28;19908;-63
2022/08/28 02:01:55;;;;;;;;;;;24.60;77.70;;;;;;5074414;28;19912;-65
2022/08/28 02:04:21;;;;;;;;;;;24.60;77.80;;;;;;5074497;28;20427;-65
2022/08/28 02:06:46;;;;;;;;;;;24.60;77.90;;;;;;5074260;28;20330;-62
2022/08/28 02:09:12;;;;;;;;;;;24.60;77.80;;;;;;5074392;28;19919;-64
2022/08/28 02:11:40;;;;;;;;;;;24.50;78.30;;;;;;5074297;28;19909;-65
2022/08/28 02:14:05;;;;;;;;;;;24.50;78.10;;;;;;5074261;28;19912;-64
2022/08/28 02:16:31;;;;;;;;;;;24.40;78.90;;;;;;5073460;28;19923;-62
2022/08/28 02:18:57;;;;;;;;;;;24.40;79.00;;;;;;5073857;28;20392;-63
2022/08/28 02:21:23;;;;;;;;;;;24.40;79.00;;;;;;5057595;28;20422;-61
2022/08/28 02:23:48;;;;;;;;;;;24.40;78.90;;;;;;5074126;28;19995;-65
2022/08/28 02:26:14;;;;;;;;;;;24.40;79.20;;;;;;5073909;28;20386;-62
2022/08/28 02:28:40;;;;;;;;;;;24.40;79.40;;;;;;5073905;28;19952;-63
2022/08/28 02:31:08;;;;;;;;;;;24.30;80.10;;;;;;5086793;28;19913;-63
2022/08/28 02:33:37;;;;;;;;;;;24.30;79.90;;;;;;5073794;28;19915;-64
2022/08/28 02:36:03;;;;;;;;;;;24.20;80.10;;;;;;5073920;28;19954;-63
2022/08/28 02:38:29;;;;;;;;;;;24.20;80.10;;;;;;5073852;28;19913;-62
2022/08/28 02:40:54;;;;;;;;;;;24.20;80.10;;;;;;5073569;28;19915;-63
2022/08/28 02:43:20;;;;;;;;;;;24.20;79.80;;;;;;5073577;28;19921;-63
2022/08/28 02:45:45;;;;;;;;;;;24.20;80.40;;;;;;5073576;28;20388;-66
2022/08/28 02:48:11;;;;;;;;;;;24.10;80.90;;;;;;5073587;28;19963;-65
2022/08/28 02:50:37;;;;;;;;;;;24.10;80.70;;;;;;5073557;28;19912;-64
2022/08/28 02:53:03;;;;;;;;;;;24.10;80.60;;;;;;5064890;28;20295;-63
2022/08/28 02:55:28;;;;;;;;;;;24.10;80.70;;;;;;5073498;28;19908;-66
2022/08/28 02:57:54;;;;;;;;;;;24.10;81.00;;;;;;5073362;28;20279;-65
2022/08/28 03:00:21;;;;;;;;;;;24.00;81.00;;;;;;5073394;28;19948;-63
2022/08/28 03:02:47;;;;;;;;;;;23.90;81.70;;;;;;5073512;28;19913;-61
2022/08/28 03:05:15;;;;;;;;;;;23.80;81.70;;;;;;5073113;28;19932;-62
2022/08/28 03:07:41;;;;;;;;;;;23.80;82.10;;;;;;5073261;28;19909;-62
2022/08/28 03:10:08;;;;;;;;;;;23.70;82.20;;;;;;5087050;28;19998;-62
2022/08/28 03:12:34;;;;;;;;;;;23.70;82.20;;;;;;5073243;28;19915;-61
2022/08/28 03:15:00;;;;;;;;;;;23.60;82.80;;;;;;5073050;28;20053;-62
2022/08/28 03:17:25;;;;;;;;;;;23.60;83.10;;;;;;5072819;28;19999;-62
2022/08/28 03:19:51;;;;;;;;;;;23.60;82.90;;;;;;5072884;28;19928;-63
2022/08/28 03:23:24;;;;;;;;;;;23.60;83.20;;;;;;5056596;28;19908;-62
2022/08/28 03:25:04;;;;;;;;;;;23.50;83.50;;;;;;5072828;28;20280;-64
2022/08/28 03:27:29;;;;;;;;;;;23.50;83.60;;;;;;5071628;28;19908;-65
2022/08/28 03:29:55;;;;;;;;;;;23.50;83.70;;;;;;5079088;28;20002;-63
2022/08/28 03:32:21;;;;;;;;;;;23.40;83.80;;;;;;5080694;28;19909;-65
2022/08/28 03:34:46;;;;;;;;;;;23.50;83.70;;;;;;5072667;28;20352;-63
2022/08/28 03:37:12;;;;;;;;;;;23.50;83.80;;;;;;5072743;28;19913;-63
2022/08/28 03:39:38;;;;;;;;;;;23.40;83.80;;;;;;5072436;28;19913;-65
2022/08/28 03:42:03;;;;;;;;;;;23.40;83.90;;;;;;5071423;28;19919;-65
2022/08/28 03:44:30;;;;;;;;;;;23.30;84.20;;;;;;5072592;28;19946;-64
2022/08/28 03:46:55;;;;;;;;;;;23.40;84.00;;;;;;5072471;28;19962;-65
2022/08/28 03:49:21;;;;;;;;;;;23.40;83.90;;;;;;5072937;28;19912;-64
2022/08/28 03:51:46;;;;;;;;;;;23.50;83.30;;;;;;5054652;28;20026;-63
2022/08/28 03:54:12;;;;;;;;;;;23.60;82.80;;;;;;5072737;28;19912;-62
2022/08/28 03:56:40;;;;;;;;;;;23.60;82.60;;;;;;5072411;28;19909;-62
2022/08/28 03:59:05;;;;;;;;;;;23.40;83.30;;;;;;5072358;28;19913;-61
2022/08/28 04:01:32;;;;;;;;;;;23.40;83.80;;;;;;5072255;28;20364;-63
2022/08/28 04:03:57;;;;;;;;;;;23.30;83.90;;;;;;5072146;28;19909;-62
2022/08/28 04:06:23;;;;;;;;;;;23.30;84.20;;;;;;5072275;28;19919;-61
2022/08/28 04:08:49;;;;;;;;;;;23.30;84.10;;;;;;5072027;28;19913;-62
2022/08/28 04:11:16;;;;;;;;;;;23.30;84.20;;;;;;5072351;28;19997;-63
2022/08/28 04:13:41;;;;;;;;;;;23.20;84.30;;;;;;5072057;28;19912;-62
2022/08/28 04:16:09;;;;;;;;;;;23.20;84.70;;;;;;5072174;28;19908;-62
2022/08/28 04:18:35;;;;;;;;;;;23.20;84.70;;;;;;5071970;28;20019;-65
2022/08/28 04:21:02;;;;;;;;;;;23.30;84.20;;;;;;5071992;28;19912;-65
2022/08/28 04:23:28;;;;;;;;;;;23.30;84.10;;;;;;5054786;28;19909;-66
2022/08/28 04:25:54;;;;;;;;;;;23.30;84.40;;;;;;5072102;28;20023;-65
2022/08/28 04:28:21;;;;;;;;;;;23.30;84.50;;;;;;5070603;28;19913;-62
2022/08/28 04:30:48;;;;;;;;;;;23.30;84.40;;;;;;5085511;28;19918;-63
2022/08/28 04:33:14;;;;;;;;;;;23.30;84.50;;;;;;5072270;28;19924;-63
2022/08/28 04:35:40;;;;;;;;;;;23.20;84.90;;;;;;5071894;28;19912;-64
2022/08/28 04:38:06;;;;;;;;;;;23.20;85.00;;;;;;5071750;28;19944;-64
2022/08/28 04:40:32;;;;;;;;;;;23.20;85.00;;;;;;5071830;28;19912;-63
2022/08/28 04:42:57;;;;;;;;;;;23.30;84.80;;;;;;5071985;28;19909;-62
2022/08/28 04:45:23;;;;;;;;;;;23.30;84.70;;;;;;5071993;28;20514;-62
2022/08/28 04:47:49;;;;;;;;;;;23.30;85.10;;;;;;5070665;28;20379;-62
2022/08/28 04:50:14;;;;;;;;;;;23.30;85.00;;;;;;5071538;28;19978;-63
2022/08/28 04:52:42;;;;;;;;;;;23.40;84.90;;;;;;5056450;28;20353;-62
2022/08/28 04:55:07;;;;;;;;;;;23.40;84.70;;;;;;5071760;28;20296;-63
2022/08/28 04:57:33;;;;;;;;;;;23.50;84.40;;;;;;5071923;28;19909;-62
2022/08/28 04:59:58;;;;;;;;;;;23.60;84.50;;;;;;5071521;28;19916;-61
2022/08/28 05:02:24;;;;;;;;;;;23.50;84.70;;;;;;5071745;28;19959;-64
2022/08/28 05:04:50;;;;;;;;;;;23.60;84.30;;;;;;5071538;28;19913;-63
2022/08/28 05:07:15;;;;;;;;;;;23.60;84.60;;;;;;5071542;28;20403;-63
2022/08/28 05:09:41;;;;;;;;;;;23.60;84.80;;;;;;5071507;28;19931;-64
2022/08/28 05:12:06;;;;;;;;;;;23.70;84.60;;;;;;5071561;28;19972;-64
2022/08/28 05:14:32;;;;;;;;;;;23.80;83.90;;;;;;5071863;28;19912;-64
2022/08/28 05:16:57;;;;;;;;;;;23.90;81.80;;;;;;5071554;28;19915;-65
2022/08/28 05:19:26;;;;;;;;;;;24.10;80.90;;;;;;5071392;28;19963;-63
2022/08/28 05:21:52;;;;;;;;;;;24.10;80.50;;;;;;5053946;28;19999;-63
2022/08/28 05:24:17;;;;;;;;;;;24.20;80.00;;;;;;5071568;28;20137;-61
2022/08/28 05:26:43;;;;;;;;;;;24.30;79.70;;;;;;5071283;28;19909;-63
2022/08/28 05:29:10;;;;;;;;;;;24.40;79.00;;;;;;5071182;28;19920;-61
2022/08/28 05:31:37;;;;;;;;;;;24.50;78.10;;;;;;5071577;28;20275;-64
2022/08/28 05:34:03;;;;;;;;;;;24.50;77.80;;;;;;5072026;28;19909;-64
2022/08/28 05:36:31;;;;;;;;;;;24.60;76.80;;;;;;5078426;28;19943;-64
2022/08/28 05:38:57;;;;;;;;;;;24.50;77.20;;;;;;5081028;28;19913;-63
2022/08/28 05:41:24;;;;;;;;;;;24.50;77.20;;;;;;5080188;28;19909;-62
2022/08/28 05:43:50;;;;;;;;;;;24.60;77.20;;;;;;5076077;28;19974;-62
2022/08/28 05:46:16;;;;;;;;;;;24.50;76.80;;;;;;5072081;28;19916;-61
2022/08/28 05:48:42;;;;;;;;;;;24.70;76.60;;;;;;5072354;28;19912;-63
2022/08/28 05:51:09;;;;;;;;;;;24.70;76.20;;;;;;5073281;28;19919;-62
2022/08/28 05:53:36;;;;;;;;;;;24.80;76.00;;;;;;5061354;28;20271;-62
2022/08/28 05:56:03;;;;;;;;;;;24.70;75.50;;;;;;5075158;28;19908;-63
2022/08/28 05:58:28;;;;;;;;;;;24.50;76.30;;;;;;5075429;28;19944;-63
2022/08/28 06:01:14;;;;;;;;;;;24.20;77.30;;;;;;5074472;28;19955;-64
2022/08/28 06:03:41;;;;;;;;;;;24.30;77.40;;;;;;5074175;28;20320;-62
2022/08/28 06:06:07;;;;;;;;;;;24.00;77.80;;;;;;5074641;28;20011;-62
2022/08/28 06:08:33;;;;;;;;;;;23.90;79.40;;;;;;5074481;28;19966;-62
2022/08/28 06:11:01;;;;;;;;;;;23.70;79.40;;;;;;5074494;28;20007;-65
2022/08/28 06:13:27;;;;;;;;;;;23.50;80.20;;;;;;5073075;28;19944;-76
2022/08/28 06:15:52;;;;;;;;;;;23.50;81.20;;;;;;5074373;28;19978;-71
2022/08/28 06:18:18;;;;;;;;;;;23.40;81.50;;;;;;5074124;28;19920;-68
2022/08/28 06:20:45;;;;;;;;;;;23.30;81.90;;;;;;5074169;28;20085;-70
2022/08/28 06:23:12;;;;;;;;;;;23.60;80.90;;;;;;5066453;28;19908;-70
2022/08/28 06:25:38;;;;;;;;;;;23.70;80.00;;;;;;5074063;28;19920;-72
2022/08/28 06:28:04;;;;;;;;;;;24.00;79.00;;;;;;5074274;28;19908;-73
2022/08/28 06:30:29;;;;;;;;;;;24.30;78.00;;;;;;5085190;28;19915;-70
2022/08/28 06:32:55;;;;;;;;;;;24.50;77.20;;;;;;5076975;28;19996;-70
2022/08/28 06:35:21;;;;;;;;;;;24.70;76.30;;;;;;5074206;28;20015;-68
2022/08/28 06:37:46;;;;;;;;;;;24.80;75.00;;;;;;5073843;28;19909;-69
2022/08/28 06:40:12;;;;;;;;;;;24.90;74.70;;;;;;5074011;28;19962;-69
2022/08/28 06:42:38;;;;;;;;;;;24.90;74.20;;;;;;5073949;28;19912;-71
2022/08/28 06:45:04;;;;;;;;;;;24.90;74.40;;;;;;5073809;28;20277;-68
2022/08/28 06:47:30;;;;;;;;;;;25.10;74.10;;;;;;5074022;28;19908;-66
2022/08/28 06:49:55;;;;;;;;;;;25.20;73.80;;;;;;5073558;28;19908;-62
2022/08/28 06:52:21;;;;;;;;;;;25.30;73.80;;;;;;5059156;28;19958;-69
2022/08/28 06:54:46;;;;;;;;;;;25.30;73.10;;;;;;5073509;28;20018;-66
2022/08/28 06:57:12;;;;;;;;;;;25.30;73.50;;;;;;5073578;28;19912;-64
2022/08/28 06:59:37;;;;;;;;;;;25.30;72.80;;;;;;5073502;28;19920;-69
2022/08/28 07:02:04;;;;;;;;;;;25.30;73.10;;;;;;5073160;28;19916;-65
2022/08/28 07:04:29;;;;;;;;;;;25.40;73.10;;;;;;5073451;28;19919;-68
2022/08/28 07:06:55;;;;;;;;;;;25.40;73.20;;;;;;5073419;28;20260;-65
2022/08/28 07:09:21;;;;;;;;;;;25.30;73.30;;;;;;5073515;28;19919;-65
2022/08/28 07:11:46;;;;;;;;;;;25.60;72.50;;;;;;5072147;28;19944;-66
2022/08/28 07:14:12;;;;;;;;;;;25.70;72.30;;;;;;5073351;28;20329;-66
2022/08/28 07:16:38;;;;;;;;;;;25.70;72.60;;;;;;5073489;28;19919;-65
2022/08/28 07:19:04;;;;;;;;;;;25.70;72.30;;;;;;5073219;28;20396;-68
2022/08/28 07:21:32;;;;;;;;;;;25.80;72.60;;;;;;5065054;28;19997;-67
2022/08/28 07:23:57;;;;;;;;;;;25.80;73.40;;;;;;5073094;28;19912;-68
2022/08/28 07:26:24;;;;;;;;;;;25.80;72.40;;;;;;5073119;28;20394;-71
2022/08/28 07:28:51;;;;;;;;;;;26.00;72.50;;;;;;5072900;28;20022;-68
2022/08/28 07:31:18;;;;;;;;;;;26.00;71.30;;;;;;5087336;28;19913;-66
2022/08/28 07:33:45;;;;;;;;;;;26.10;71.10;;;;;;5072664;28;20372;-63
2022/08/28 07:36:16;;;;;;;;;;;26.30;70.40;;;;;;5072116;28;20003;-66
2022/08/28 07:38:41;;;;;;;;;;;26.60;69.50;;;;;;5071764;28;19959;-67
2022/08/28 07:41:13;;;;;;;;;;;26.80;69.10;;;;;;5071420;28;19940;-68
2022/08/28 07:46:22;;;;;;;;;;;27.10;67.80;;;;;;5071839;28;20383;-72
2022/08/28 07:48:48;;;;;;;;;;;27.40;67.00;;;;;;5072153;28;19909;-73
2022/08/28 07:51:14;;;;;;;;;;;27.60;66.50;;;;;;5072799;28;19923;-70
2022/08/28 07:53:39;;;;;;;;;;;27.70;66.00;;;;;;5063902;28;19966;-70
2022/08/28 07:56:05;;;;;;;;;;;27.70;66.00;;;;;;5073105;28;19908;-69
2022/08/28 07:58:31;;;;;;;;;;;27.60;66.60;;;;;;5072741;28;19995;-69
2022/08/28 08:00:57;;;;;;;;;;;27.50;66.30;;;;;;5072336;28;19912;-69
2022/08/28 08:03:24;;;;;;;;;;;27.40;67.20;;;;;;5071626;28;19913;-70
2022/08/28 08:05:51;;;;;;;;;;;27.30;67.50;;;;;;5071641;28;19920;-69
2022/08/28 08:08:16;;;;;;;;;;;27.30;67.70;;;;;;5071416;28;19962;-69
2022/08/28 08:10:42;;;;;;;;;;;27.40;68.50;;;;;;5073972;28;19916;-70
2022/08/28 08:13:07;;;;;;;;;;;27.50;67.40;;;;;;5071037;28;19958;-70
2022/08/28 08:15:33;;;;;;;;;;;27.60;67.10;;;;;;5072167;28;19951;-69
2022/08/28 08:17:59;;;;;;;;;;;27.70;66.70;;;;;;5071860;28;19917;-70
2022/08/28 08:20:24;;;;;;;;;;;27.60;66.90;;;;;;5072311;28;19923;-72
2022/08/28 08:22:50;;;;;;;;;;;27.60;66.50;;;;;;5061781;28;19934;-71
2022/08/28 08:25:16;;;;;;;;;;;27.50;66.60;;;;;;5080089;28;20295;-71
2022/08/28 08:27:42;;;;;;;;;;;27.50;66.90;;;;;;5080493;28;19930;-69
2022/08/28 08:30:07;;;;;;;;;;;27.40;67.00;;;;;;5086195;28;19908;-70
2022/08/28 08:32:33;;;;;;;;;;;27.30;67.30;;;;;;5098151;28;20036;-70
2022/08/28 08:34:59;;;;;;;;;;;27.30;67.70;;;;;;5097822;28;19915;-67
2022/08/28 08:37:24;;;;;;;;;;;27.30;67.80;;;;;;5092127;28;19912;-68
2022/08/28 08:39:52;;;;;;;;;;;27.30;68.00;;;;;;5091040;28;19919;-70
2022/08/28 08:42:22;;;;;;;;;;;27.30;68.70;;;;;;5091400;28;19916;-68
2022/08/28 08:44:50;;;;;;;;;;;27.30;69.50;;;;;;5086743;28;19928;-71
2022/08/28 08:47:20;;;;;;;;;;;27.30;70.00;;;;;;5071848;28;19909;-72
2022/08/28 08:49:51;;;;;;;;;;;27.30;69.60;;;;;;5071755;28;19913;-73
2022/08/28 08:52:27;;;;;;;;;;;27.20;69.00;;;;;;5063187;28;19947;-76
2022/08/28 08:55:13;;;;;;;;;;;27.10;69.30;;;;;;5072138;28;20341;-72
2022/08/28 08:57:39;;;;;;;;;;;27.20;69.20;;;;;;5071937;28;19912;-72
2022/08/28 09:00:09;;;;;;;;;;;27.20;70.10;;;;;;5071558;28;19916;-70
2022/08/28 09:02:41;;;;;;;;;;;27.20;69.60;;;;;;5071382;28;19923;-71
2022/08/28 09:05:10;;;;;;;;;;;27.20;68.80;;;;;;5071671;28;20003;-71
2022/08/28 09:07:37;;;;;;;;;;;27.20;68.80;;;;;;5071680;28;19991;-68
2022/08/28 09:10:04;;;;;;;;;;;27.20;72.00;;;;;;5071512;28;19965;-72
2022/08/28 09:12:33;;;;;;;;;;;27.20;70.00;;;;;;5071570;28;19912;-70
2022/08/28 09:15:11;;;;;;;;;;;27.10;68.30;;;;;;5071800;28;19913;-71
2022/08/28 09:17:40;;;;;;;;;;;27.20;68.30;;;;;;5072228;28;19912;-70
2022/08/28 09:20:09;;;;;;;;;;;27.20;68.30;;;;;;5071627;28;19916;-67
2022/08/28 09:22:36;;;;;;;;;;;27.30;67.50;;;;;;5059566;28;20065;-69
2022/08/28 09:25:02;;;;;;;;;;;27.30;68.20;;;;;;5073154;28;19916;-70
2022/08/28 09:27:30;;;;;;;;;;;27.40;67.40;;;;;;5075322;28;19919;-69
2022/08/28 09:30:00;;;;;;;;;;;27.40;67.70;;;;;;5081695;28;20342;-70
2022/08/28 09:32:29;;;;;;;;;;;27.50;67.90;;;;;;5082091;28;20392;-70
2022/08/28 09:35:14;;;;;;;;;;;27.50;68.10;;;;;;5075072;28;19919;-74
2022/08/28 09:37:40;;;;;;;;;;;27.40;67.90;;;;;;5075076;28;19919;-68
2022/08/28 09:40:18;;;;;;;;;;;27.40;67.90;;;;;;5074883;28;19912;-71
2022/08/28 09:46:10;;;;;;;;;;;27.40;68.40;;;;;;5074909;28;19927;-71
2022/08/28 09:48:37;;;;;;;;;;;27.40;68.10;;;;;;5073202;28;19908;-70
2022/08/28 09:51:02;;;;;;;;;;;27.30;68.30;;;;;;5073743;28;19973;-73
2022/08/28 09:53:29;;;;;;;;;;;27.20;67.90;;;;;;5054460;28;19908;-71
2022/08/28 09:56:07;;;;;;;;;;;27.20;68.80;;;;;;5073480;28;20360;-77
2022/08/28 09:58:38;;;;;;;;;;;27.10;67.90;;;;;;5073365;28;19940;-71
2022/08/28 10:01:08;;;;;;;;;;;27.10;67.60;;;;;;5074119;28;20276;-69
2022/08/28 10:03:40;;;;;;;;;;;27.00;68.10;;;;;;5073738;28;19908;-70
2022/08/28 10:06:12;;;;;;;;;;;27.00;68.70;;;;;;5072215;28;19939;-68
2022/08/28 10:08:52;;;;;;;;;;;27.10;68.70;;;;;;5072571;28;19920;-71
2022/08/28 10:11:29;;;;;;;;;;;27.10;67.20;;;;;;5073576;28;19918;-74
2022/08/28 10:13:59;;;;;;;;;;;27.20;68.40;;;;;;5074204;28;20003;-70
2022/08/28 10:16:43;;;;;;;;;;;27.20;68.10;;;;;;5074387;28;19916;-71
2022/08/28 10:19:28;;;;;;;;;;;27.30;66.30;;;;;;5072742;28;20406;-66
2022/08/28 10:22:03;;;;;;;;;;;27.30;66.20;;;;;;5056163;28;19912;-68
2022/08/28 10:24:55;;;;;;;;;;;27.30;67.00;;;;;;5074240;28;19991;-72
2022/08/28 10:27:23;;;;;;;;;;;27.20;66.90;;;;;;5079177;28;20270;-71
2022/08/28 10:29:57;;;;;;;;;;;27.20;67.30;;;;;;5079856;28;19908;-68
2022/08/28 10:32:41;;;;;;;;;;;27.20;65.30;;;;;;5081569;28;19912;-73
2022/08/28 10:35:13;;;;;;;;;;;27.20;67.80;;;;;;5072953;28;19914;-72
2022/08/28 10:37:41;;;;;;;;;;;27.20;65.80;;;;;;5073467;28;20015;-67
2022/08/28 10:40:27;;;;;;;;;;;27.20;66.00;;;;;;5074034;28;19913;-71
2022/08/28 10:43:08;;;;;;;;;;;27.20;63.90;;;;;;5073640;28;19912;-71
2022/08/28 10:45:34;;;;;;;;;;;27.10;63.90;;;;;;5074142;28;20363;-69
2022/08/28 10:48:03;;;;;;;;;;;27.10;63.30;;;;;;5073802;28;19909;-69
2022/08/28 10:50:37;;;;;;;;;;;27.20;63.50;;;;;;5073802;28;20006;-62
2022/08/28 10:53:07;;;;;;;;;;;27.20;62.60;;;;;;5063374;28;19909;-65
2022/08/28 10:55:38;;;;;;;;;;;27.20;65.80;;;;;;5073897;28;19923;-69
2022/08/28 10:58:05;;;;;;;;;;;27.20;62.90;;;;;;5073569;28;19916;-67
2022/08/28 11:00:32;;;;;;;;;;;27.30;65.80;;;;;;5073545;28;19913;-69
2022/08/28 11:03:09;;;;;;;;;;;27.30;67.20;;;;;;5073599;28;19913;-65
2022/08/28 11:05:55;;;;;;;;;;;27.30;66.10;;;;;;5071920;28;19921;-69
2022/08/28 11:08:26;;;;;;;;;;;27.30;65.30;;;;;;5072366;28;19912;-64
2022/08/28 11:10:53;;;;;;;;;;;27.30;64.80;;;;;;5074642;28;19915;-66
2022/08/28 11:13:53;;;;;;;;;;;27.30;64.50;;;;;;5075941;28;19930;-69
2022/08/28 11:16:28;;;;;;;;;;;27.30;60.60;;;;;;5039782;28;20007;-65
2022/08/28 11:19:00;;;;;;;;;;;27.40;63.80;;;;;;5082664;28;19920;-67
2022/08/28 11:21:33;;;;;;;;;;;27.50;59.90;;;;;;5054366;28;20005;-77
2022/08/28 11:24:06;;;;;;;;;;;27.50;61.00;;;;;;5072386;28;19912;-73
2022/08/28 11:26:46;;;;;;;;;;;27.60;60.10;;;;;;5072038;28;20313;-68
2022/08/28 11:29:32;;;;;;;;;;;27.60;60.30;;;;;;5071550;28;20386;-63
2022/08/28 11:32:17;;;;;;;;;;;27.70;57.90;;;;;;5071471;28;19915;-67
2022/08/28 11:34:56;;;;;;;;;;;27.70;59.90;;;;;;5071431;28;19913;-71
2022/08/28 11:37:39;;;;;;;;;;;27.70;59.70;;;;;;5071486;28;20230;-69
2022/08/28 11:40:40;;;;;;;;;;;27.70;59.40;;;;;;5071837;28;20398;-70
2022/08/28 11:43:14;;;;;;;;;;;27.70;59.40;;;;;;5072705;28;19948;-68
2022/08/28 11:45:49;;;;;;;;;;;27.70;59.60;;;;;;5089735;28;19920;-64
2022/08/28 11:48:24;;;;;;;;;;;27.80;58.00;;;;;;5076143;28;19917;-62
2022/08/28 11:51:10;;;;;;;;;;;27.80;57.30;;;;;;5091074;28;20348;-63
2022/08/28 11:53:42;;;;;;;;;;;27.80;59.60;;;;;;5065229;28;19912;-67
2022/08/28 11:56:23;;;;;;;;;;;27.90;60.30;;;;;;5082020;28;19912;-71
2022/08/28 11:58:57;;;;;;;;;;;27.90;59.80;;;;;;5072147;28;19916;-69
2022/08/28 12:01:28;;;;;;;;;;;27.80;59.60;;;;;;5082758;28;19919;-71
2022/08/28 12:03:53;;;;;;;;;;;27.90;59.90;;;;;;5072098;28;19991;-68
2022/08/28 12:06:51;;;;;;;;;;;27.90;60.30;;;;;;5081680;28;20049;-67
2022/08/28 12:09:16;;;;;;;;;;;27.80;61.70;;;;;;5071038;28;19951;-68
2022/08/28 12:11:42;;;;;;;;;;;27.90;60.50;;;;;;5071254;28;20316;-63
2022/08/28 12:14:08;;;;;;;;;;;27.80;60.60;;;;;;5075315;28;20382;-65
2022/08/28 12:16:53;;;;;;;;;;;27.90;61.10;;;;;;5080918;28;19958;-64
2022/08/28 12:19:37;;;;;;;;;;;27.90;60.70;;;;;;5085328;28;20437;-67
2022/08/28 12:22:03;;;;;;;;;;;27.90;61.20;;;;;;5070960;28;19912;-67
2022/08/28 12:24:29;;;;;;;;;;;27.90;61.10;;;;;;5070828;28;19912;-65
2022/08/28 12:26:55;;;;;;;;;;;27.90;61.30;;;;;;5071459;28;19927;-66
2022/08/28 12:29:27;;;;;;;;;;;28.00;60.30;;;;;;5085069;28;19909;-65
2022/08/28 12:32:11;;;;;;;;;;;28.00;60.80;;;;;;5073490;28;20732;-65
2022/08/28 12:34:40;;;;;;;;;;;28.10;60.40;;;;;;5074248;28;19913;-64
2022/08/28 12:37:18;;;;;;;;;;;28.00;60.30;;;;;;5070681;28;19991;-65
2022/08/28 12:39:44;;;;;;;;;;;28.10;61.00;;;;;;5070193;28;20023;-65
2022/08/28 12:42:16;;;;;;;;;;;28.00;60.70;;;;;;5070944;28;20014;-67
2022/08/28 12:44:41;;;;;;;;;;;28.00;61.40;;;;;;5070308;28;20360;-68
2022/08/28 12:47:07;;;;;;;;;;;28.00;62.70;;;;;;5070750;28;19958;-67
2022/08/28 12:49:34;;;;;;;;;;;28.00;63.00;;;;;;5070144;28;20264;-67
2022/08/28 12:52:07;;;;;;;;;;;28.00;62.20;;;;;;5058439;28;19908;-67
2022/08/28 12:54:34;;;;;;;;;;;28.10;62.10;;;;;;5070683;28;19908;-68
2022/08/28 12:57:02;;;;;;;;;;;28.10;62.10;;;;;;5081662;28;19915;-67
2022/08/28 12:59:38;;;;;;;;;;;28.10;61.70;;;;;;5071651;28;19947;-67
2022/08/28 13:02:25;;;;;;;;;;;28.20;61.10;;;;;;5078704;28;19919;-68
2022/08/28 13:04:50;;;;;;;;;;;28.10;61.50;;;;;;5070548;28;19920;-67
2022/08/28 13:07:17;;;;;;;;;;;28.10;61.40;;;;;;5074552;28;20326;-68
2022/08/28 13:09:47;;;;;;;;;;;28.00;61.00;;;;;;5074205;28;19916;-68
2022/08/28 13:12:19;;;;;;;;;;;28.00;60.80;;;;;;5074345;28;19921;-68
2022/08/28 13:14:45;;;;;;;;;;;28.00;61.10;;;;;;5074088;28;20067;-68
2022/08/28 13:17:12;;;;;;;;;;;28.00;61.80;;;;;;5074138;28;19913;-67
2022/08/28 13:19:38;;;;;;;;;;;28.00;61.70;;;;;;5073960;28;19950;-67
2022/08/28 13:22:07;;;;;;;;;;;28.00;62.10;;;;;;5056774;28;20330;-65
2022/08/28 13:24:37;;;;;;;;;;;28.10;62.10;;;;;;5072496;28;20288;-69
2022/08/28 13:27:15;;;;;;;;;;;28.10;62.70;;;;;;5074193;28;20371;-68
2022/08/28 13:29:55;;;;;;;;;;;28.10;62.60;;;;;;5074046;28;20028;-65
2022/08/28 13:32:20;;;;;;;;;;;28.10;62.80;;;;;;5073834;28;20459;-69
2022/08/28 13:35:04;;;;;;;;;;;28.10;63.20;;;;;;5076754;28;20002;-65
2022/08/28 13:37:59;;;;;;;;;;;28.10;63.00;;;;;;5073308;28;19920;-65
2022/08/28 13:40:29;;;;;;;;;;;28.20;62.90;;;;;;5066977;28;20384;-64
2022/08/28 13:43:01;;;;;;;;;;;28.20;62.60;;;;;;5073817;28;19943;-65
2022/08/28 13:45:26;;;;;;;;;;;28.10;63.00;;;;;;5073423;28;20261;-66
2022/08/28 13:47:52;;;;;;;;;;;28.10;62.80;;;;;;5073472;28;19908;-65
2022/08/28 13:50:18;;;;;;;;;;;28.10;61.60;;;;;;5073507;28;19924;-66
2022/08/28 13:52:44;;;;;;;;;;;28.10;62.10;;;;;;5049797;28;19912;-64
2022/08/28 13:55:10;;;;;;;;;;;28.10;61.90;;;;;;5073866;28;19972;-66
2022/08/28 13:57:35;;;;;;;;;;;28.10;61.00;;;;;;5073655;28;20007;-66
2022/08/28 14:00:01;;;;;;;;;;;28.10;61.20;;;;;;5089749;28;19912;-65
2022/08/28 14:05:10;;;;;;;;;;;28.10;62.00;;;;;;5075072;28;20015;-66
2022/08/28 14:07:36;;;;;;;;;;;28.10;61.80;;;;;;5073126;28;19998;-66
2022/08/28 14:10:03;;;;;;;;;;;28.20;61.80;;;;;;5073144;28;19912;-66
2022/08/28 14:12:28;;;;;;;;;;;28.20;61.60;;;;;;5071889;28;19916;-69
2022/08/28 14:14:54;;;;;;;;;;;28.10;61.00;;;;;;5073075;28;20295;-67
2022/08/28 14:17:20;;;;;;;;;;;28.20;63.10;;;;;;5072511;28;20409;-65
2022/08/28 14:19:46;;;;;;;;;;;28.20;63.10;;;;;;5072976;28;19966;-66
2022/08/28 14:22:12;;;;;;;;;;;28.20;63.00;;;;;;5064354;28;19966;-69
2022/08/28 14:24:38;;;;;;;;;;;28.10;63.00;;;;;;5072785;28;19920;-67
2022/08/28 14:27:03;;;;;;;;;;;28.00;62.90;;;;;;5073142;28;19913;-66
2022/08/28 14:29:30;;;;;;;;;;;28.00;63.20;;;;;;5072351;28;19916;-66
2022/08/28 14:31:55;;;;;;;;;;;27.90;62.60;;;;;;5072908;28;20407;-66
2022/08/28 14:34:22;;;;;;;;;;;27.80;61.80;;;;;;5071287;28;20015;-65